Time;durP1;ratioP1;P1;durP2;ratioP2;P2;SDS_P1;SDS_P2;PMS_P1;PMS_P2;Temp;Humidity;BMP_temperature;BMP_pressure;BME280_temperature;BME280_humidity;BME280_pressure;Samples;Min_cycle;Max_cycle;Signal;HPM_P1;HPM_P2
2023/01/19 00:02:19;;;;;;;25.75;17.90;;;;;;;0.61;74.24;97880.72;5133099;27;20058;-48
2023/01/19 00:04:44;;;;;;;24.67;17.33;;;;;;;0.59;75.06;97883.44;5134383;27;20023;-48
2023/01/19 00:07:11;;;;;;;23.67;17.27;;;;;;;0.55;74.56;97882.13;5134546;27;20026;-48
2023/01/19 00:09:45;;;;;;;28.63;16.08;;;;;;;0.42;75.33;97884.34;5132979;27;20054;-48
2023/01/19 00:12:10;;;;;;;21.75;13.45;;;;;;;0.51;75.76;97888.59;5134191;27;20027;-48
2023/01/19 00:14:36;;;;;;;24.98;13.13;;;;;;;0.68;74.54;97879.09;5132956;27;20027;-48
2023/01/19 00:17:02;;;;;;;15.55;10.07;;;;;;;0.87;73.57;97877.25;5132767;27;20019;-48
2023/01/19 00:19:28;;;;;;;21.15;14.75;;;;;;;0.99;73.47;97873.38;5134085;27;20076;-48
2023/01/19 00:21:54;;;;;;;25.02;17.52;;;;;;;1.07;73.55;97880.34;5132634;27;20022;-48
2023/01/19 00:24:20;;;;;;;29.38;17.13;;;;;;;1.14;73.55;97868.38;5132409;27;20050;-48
2023/01/19 00:26:46;;;;;;;22.05;15.85;;;;;;;1.22;74.13;97865.00;5133946;27;20023;-48
2023/01/19 00:29:14;;;;;;;21.42;15.13;;;;;;;1.04;72.38;97872.91;5134089;27;20023;-48
2023/01/19 00:31:40;;;;;;;27.27;16.45;;;;;;;0.85;73.33;97876.59;5134003;27;20400;-48
2023/01/19 00:34:06;;;;;;;20.15;12.55;;;;;;;0.87;72.91;97880.63;5133712;27;20027;-48
2023/01/19 00:36:33;;;;;;;21.77;14.25;;;;;;;0.90;73.50;97876.91;5115325;27;20019;-48
2023/01/19 00:38:59;;;;;;;20.13;13.82;;;;;;;0.89;73.28;97877.88;5133699;27;20121;-48
2023/01/19 00:44:10;;;;;;;23.42;15.43;;;;;;;0.71;73.68;97880.59;5133932;27;20045;-48
2023/01/19 00:46:37;;;;;;;19.88;14.93;;;;;;;0.63;74.06;97880.56;5132148;27;20026;-47
2023/01/19 00:49:02;;;;;;;16.58;12.43;;;;;;;0.63;74.14;97878.78;5133463;27;20027;-48
2023/01/19 00:51:28;;;;;;;16.85;12.32;;;;;;;0.70;72.93;97878.94;5132150;27;20088;-48
2023/01/19 00:53:54;;;;;;;21.80;14.35;;;;;;;0.77;73.86;97882.53;5131993;27;20023;-48
2023/01/19 00:56:19;;;;;;;19.63;12.60;;;;;;;0.96;73.70;97876.28;5133371;27;20030;-48
2023/01/19 00:58:45;;;;;;;24.60;14.55;;;;;;;1.01;73.31;97881.78;5132042;27;20114;-48
2023/01/19 01:01:11;;;;;;;24.00;15.25;;;;;;;0.92;73.03;97883.53;5133181;27;20023;-48
2023/01/19 01:03:37;;;;;;;24.55;15.63;;;;;;;0.74;73.11;97885.41;5131914;27;20431;-48
2023/01/19 01:06:05;;;;;;;29.25;17.20;;;;;;;0.53;73.76;97894.41;5131851;27;20453;-48
2023/01/19 01:08:32;;;;;;;23.40;16.60;;;;;;;0.48;74.21;97896.63;5133155;27;20027;-48
2023/01/19 01:10:57;;;;;;;28.88;18.55;;;;;;;0.47;74.40;97889.88;5133082;27;20494;-48
2023/01/19 01:13:23;;;;;;;25.08;16.67;;;;;;;0.61;74.97;97906.53;5131670;27;20047;-48
2023/01/19 01:15:50;;;;;;;24.75;16.48;;;;;;;0.77;75.31;97904.00;5133072;27;20019;-48
2023/01/19 01:18:16;;;;;;;21.80;15.38;;;;;;;0.72;75.08;97902.84;5131711;27;20031;-48
2023/01/19 01:20:42;;;;;;;21.00;14.43;;;;;;;0.61;74.83;97900.56;5133003;27;20429;-48
2023/01/19 01:23:07;;;;;;;20.10;14.07;;;;;;;0.48;75.29;97900.97;5132729;27;20066;-47
2023/01/19 01:25:36;;;;;;;24.90;13.50;;;;;;;0.44;75.21;97910.81;5131560;27;20374;-48
2023/01/19 01:28:05;;;;;;;19.80;13.43;;;;;;;0.36;74.74;97909.03;5132883;27;20016;-47
2023/01/19 01:30:30;;;;;;;21.77;14.15;;;;;;;0.49;75.66;97903.41;5132890;27;20028;-48
2023/01/19 01:32:56;;;;;;;21.90;13.38;;;;;;;0.70;75.55;97905.56;5132308;27;20030;-47
2023/01/19 01:35:21;;;;;;;20.35;13.68;;;;;;;0.78;74.86;97904.81;5132724;27;20031;-47
2023/01/19 01:37:47;;;;;;;21.30;13.82;;;;;;;0.83;74.84;97902.56;5132805;27;20016;-48
2023/01/19 01:40:15;;;;;;;22.10;13.82;;;;;;;0.85;74.24;97905.81;5131716;28;20035;-48
2023/01/19 01:42:41;;;;;;;21.05;15.13;;;;;;;0.81;74.12;97904.50;5132725;27;20546;-47
2023/01/19 01:45:27;;;;;;;17.95;12.10;;;;;;;0.85;72.65;97899.84;5131335;28;20031;-47
2023/01/19 01:47:57;;;;;;;16.45;12.32;;;;;;;0.74;71.59;97893.16;5132345;28;20471;-48
2023/01/19 01:50:27;;;;;;;18.75;13.23;;;;;;;0.59;71.37;97904.09;5132665;27;20019;-47
2023/01/19 01:52:58;;;;;;;39.10;30.35;;;;;;;0.56;72.77;97909.59;5131286;28;20046;-48
2023/01/19 01:55:25;;;;;;;28.02;18.48;;;;;;;0.59;73.10;97904.09;5131319;28;20397;-48
2023/01/19 01:57:58;;;;;;;24.20;16.08;;;;;;;0.70;73.43;97900.41;5131325;28;20084;-48
2023/01/19 02:00:24;;;;;;;26.17;16.30;;;;;;;0.74;72.95;97901.72;5132584;27;20031;-48
2023/01/19 02:02:50;;;;;;;27.70;17.15;;;;;;;0.79;73.56;97896.91;5132548;28;20102;-48
2023/01/19 02:05:20;;;;;;;26.63;16.52;;;;;;;0.77;73.88;97903.19;5131180;28;20027;-48
2023/01/19 02:13:29;;;;;;;20.88;13.75;;;;;;;0.59;71.89;97923.94;5132617;28;20058;-48
2023/01/19 02:15:59;;;;;;;20.65;14.02;;;;;;;0.62;72.86;97923.63;5131105;28;20051;-48
2023/01/19 02:18:27;;;;;;;21.55;16.10;;;;;;;0.67;72.68;97923.19;5132456;27;20016;-48
2023/01/19 02:21:18;;;;;;;22.02;15.27;;;;;;;0.47;72.63;97927.78;5132636;27;20100;-48
2023/01/19 02:23:50;;;;;;;23.33;15.20;;;;;;;0.32;72.72;97927.53;5132271;27;20071;-47
2023/01/19 02:26:20;;;;;;;21.45;13.55;;;;;;;0.37;74.10;97931.28;5131027;28;20408;-48
2023/01/19 02:28:56;;;;;;;22.73;14.75;;;;;;;0.45;73.22;97929.72;5130972;28;20023;-48
2023/01/19 02:31:22;;;;;;;;;;;;;;;0.38;73.20;97917.41;5131563;28;20031;-48
2023/01/19 02:33:48;;;;;;;21.73;14.82;;;;;;;0.43;74.05;97911.78;5130925;28;20002;-47
2023/01/19 02:36:17;;;;;;;23.85;15.75;;;;;;;0.49;73.57;97903.41;5132169;27;20074;-47
2023/01/19 02:38:45;;;;;;;21.30;15.63;;;;;;;0.35;73.42;97902.22;5132145;27;20048;-47
2023/01/19 02:41:17;;;;;;;20.73;14.15;;;;;;;0.23;73.26;97894.94;5132122;27;20022;-47
2023/01/19 02:43:44;;;;;;;19.70;13.70;;;;;;;0.22;74.64;97901.03;5132300;27;20392;-47
2023/01/19 02:46:10;;;;;;;23.63;15.02;;;;;;;0.54;74.75;97896.03;5134525;27;20027;-47
2023/01/19 02:48:35;;;;;;;21.95;14.70;;;;;;;0.73;73.24;97894.94;5135862;27;20027;-48
2023/01/19 02:51:08;;;;;;;21.08;15.23;;;;;;;0.76;73.66;97896.41;5134491;27;20039;-48
2023/01/19 02:53:33;;;;;;;21.67;13.38;;;;;;;0.73;72.53;97896.72;5135761;27;20036;-47
2023/01/19 02:56:05;;;;;;;17.58;15.27;;;;;;;0.48;72.23;97900.97;5134328;27;20035;-48
2023/01/19 02:58:36;;;;;;;20.20;14.15;;;;;;;0.40;73.02;97899.19;5135958;27;20023;-48
2023/01/19 03:01:37;;;;;;;20.17;14.32;;;;;;;0.51;73.05;97896.31;5135628;27;20031;-48
2023/01/19 03:04:23;;;;;;;23.13;14.77;;;;;;;0.45;72.75;97896.94;5131680;27;20435;-48
2023/01/19 03:07:07;;;;;;;24.20;13.00;;;;;;;0.44;73.13;97910.00;5134268;27;20121;-48
2023/01/19 03:09:48;;;;;;;22.88;13.55;;;;;;;0.53;72.70;97914.25;5135475;27;20041;-48
2023/01/19 03:12:48;;;;;;;20.13;14.15;;;;;;;0.30;72.79;97913.97;5135298;27;20052;-48
2023/01/19 03:15:19;;;;;;;20.77;13.73;;;;;;;0.18;72.69;97903.94;5135377;27;20506;-48
2023/01/19 03:17:48;;;;;;;24.67;13.77;;;;;;;0.17;73.56;97907.47;5135533;27;20080;-48
2023/01/19 03:20:21;;;;;;;22.38;15.65;;;;;;;0.19;74.00;97897.78;5135263;27;20107;-48
2023/01/19 03:22:52;;;;;;;23.50;13.02;;;;;;;0.24;73.59;97893.94;5135041;27;20057;-48
2023/01/19 03:25:19;;;;;;;21.10;9.30;;;;;;;0.25;72.57;97900.75;5135241;27;20396;-48
2023/01/19 03:27:47;;;;;;;16.92;11.07;;;;;;;0.36;71.81;97896.13;5135145;27;20427;-47
2023/01/19 03:30:27;;;;;;;19.80;11.45;;;;;;;0.37;70.62;97892.56;5133720;27;20042;-47
2023/01/19 03:33:08;;;;;;;18.92;12.30;;;;;;;0.26;70.64;97892.03;5134999;27;20076;-48
2023/01/19 03:35:39;;;;;;;18.00;12.70;;;;;;;0.21;71.58;97894.28;5135015;27;20114;-48
2023/01/19 03:38:10;;;;;;;17.75;14.27;;;;;;;0.27;72.17;97893.66;5133679;27;20122;-48
2023/01/19 03:40:38;;;;;;;25.73;14.68;;;;;;;0.15;72.36;97900.84;5133579;27;20027;-48
2023/01/19 03:43:05;;;;;;;24.08;14.88;;;;;;;0.09;73.63;97896.31;5134850;27;20050;-48
2023/01/19 03:45:32;;;;;;;23.52;15.77;;;;;;;0.12;74.37;97906.31;5133426;27;20015;-48
2023/01/19 03:47:58;;;;;;;27.40;13.90;;;;;;;0.08;73.75;97907.56;5133390;27;20024;-48
2023/01/19 03:50:29;;;;;;;21.17;13.88;;;;;;;0.03;73.92;97912.38;5134643;27;20370;-48
2023/01/19 03:53:11;;;;;;;20.73;14.73;;;;;;;-0.05;73.42;97902.81;5134493;27;20023;-48
2023/01/19 03:55:40;;;;;;;20.70;15.18;;;;;;;-0.22;74.11;97907.09;5134201;27;20422;-47
2023/01/19 03:58:06;;;;;;;28.73;14.90;;;;;;;-0.35;74.50;97910.03;5134760;27;20100;-47
2023/01/19 04:00:32;;;;;;;22.15;14.57;;;;;;;-0.43;75.45;97907.41;5133140;27;20492;-47
2023/01/19 04:02:58;;;;;;;19.80;15.13;;;;;;;-0.37;75.58;97906.81;5133117;27;20587;-47
2023/01/19 04:05:24;;;;;;;24.15;15.60;;;;;;;-0.19;76.15;97901.59;5134326;27;20531;-47
2023/01/19 04:07:51;;;;;;;24.30;15.82;;;;;;;0.06;75.92;97896.59;5134302;27;20046;-47
2023/01/19 04:10:18;;;;;;;24.27;17.00;;;;;;;0.21;75.62;97897.66;5132939;27;20031;-47
2023/01/19 04:12:44;;;;;;;28.33;16.10;;;;;;;0.39;75.22;97897.56;5134176;27;20515;-48
2023/01/19 04:15:10;;;;;;;26.15;18.20;;;;;;;0.53;74.57;97891.81;5132796;27;20070;-47
2023/01/19 04:17:37;;;;;;;31.40;16.08;;;;;;;0.51;73.97;97909.22;5134120;27;20035;-48
2023/01/19 04:20:03;;;;;;;26.75;14.70;;;;;;;0.71;73.75;97911.56;5115738;27;20027;-48
2023/01/19 04:22:29;;;;;;;24.30;15.40;;;;;;;0.77;72.54;97905.78;5132681;27;20485;-48
2023/01/19 04:24:55;;;;;;;26.08;14.18;;;;;;;0.72;72.86;97919.13;5133701;27;20047;-48
2023/01/19 04:27:21;;;;;;;23.80;12.60;;;;;;;0.94;73.65;97928.09;5134213;27;20035;-48
2023/01/19 04:29:46;;;;;;;22.35;13.23;;;;;;;1.18;73.11;97932.50;5132554;27;20015;-48
2023/01/19 04:32:13;;;;;;;28.13;14.50;;;;;;;1.23;72.68;97926.88;5132533;27;20519;-48
2023/01/19 04:34:39;;;;;;;31.33;13.90;;;;;;;1.51;73.25;97926.56;5132502;27;20057;-48
2023/01/19 04:37:05;;;;;;;18.15;11.68;;;;;;;1.87;72.11;97933.97;5134353;27;20035;-48
2023/01/19 04:39:30;;;;;;;20.50;13.13;;;;;;;1.88;70.36;97935.59;5132447;27;20015;-48
2023/01/19 04:41:56;;;;;;;19.92;13.48;;;;;;;1.50;69.29;97933.50;5133689;27;20037;-47
2023/01/19 04:44:22;;;;;;;16.50;13.00;;;;;;;1.09;69.23;97938.63;5132266;27;20114;-47
2023/01/19 04:46:50;;;;;;;17.02;12.80;;;;;;;0.81;70.28;97943.25;5132237;27;20019;-48
2023/01/19 04:49:16;;;;;;;20.42;13.10;;;;;;;0.78;71.79;97938.38;5133527;27;20374;-48
2023/01/19 04:51:42;;;;;;;23.48;14.80;;;;;;;0.97;71.87;97934.72;5133714;27;20026;-48
2023/01/19 04:54:08;;;;;;;21.98;12.20;;;;;;;1.34;72.55;97949.00;5132026;27;20023;-48
2023/01/19 04:56:34;;;;;;;22.02;11.75;;;;;;;1.53;72.23;97948.72;5132075;27;20033;-48
2023/01/19 04:59:00;;;;;;;19.90;12.70;;;;;;;1.83;72.04;97953.38;5132032;27;20027;-47
2023/01/19 05:01:26;;;;;;;17.33;11.85;;;;;;;2.08;70.35;97960.16;5131978;27;20030;-48
2023/01/19 05:03:51;;;;;;;19.95;12.00;;;;;;;2.20;70.22;97958.03;5133353;27;20019;-48
2023/01/19 05:06:17;;;;;;;18.75;13.07;;;;;;;2.28;69.84;97965.78;5131692;27;20035;-48
2023/01/19 05:08:43;;;;;;;17.65;12.05;;;;;;;2.41;69.88;97962.69;5132876;27;20031;-48
2023/01/19 05:11:09;;;;;;;15.27;11.30;;;;;;;2.60;69.16;97958.91;5133172;27;20068;-48
2023/01/19 05:13:35;;;;;;;24.52;16.27;;;;;;;2.64;67.61;97967.16;5133035;27;20019;-48
2023/01/19 05:16:01;;;;;;;19.55;13.60;;;;;;;2.36;67.57;97960.59;5131750;27;20019;-48
2023/01/19 05:18:28;;;;;;;30.50;17.70;;;;;;;2.04;68.22;97955.50;5131778;27;20080;-48
2023/01/19 05:20:54;;;;;;;19.08;14.13;;;;;;;1.84;68.41;97963.59;5133043;27;20016;-48
2023/01/19 05:23:20;;;;;;;22.23;12.75;;;;;;;1.63;68.93;97969.25;5114365;27;20086;-48
2023/01/19 05:25:46;;;;;;;17.30;12.85;;;;;;;1.66;69.94;97966.31;5131593;27;20051;-48
2023/01/19 05:28:12;;;;;;;21.00;13.02;;;;;;;1.68;69.43;97968.75;5131612;27;20105;-48
2023/01/19 05:30:37;;;;;;;22.45;13.35;;;;;;;1.63;69.54;97961.50;5132817;27;20015;-47
2023/01/19 05:33:03;;;;;;;19.73;11.15;;;;;;;1.72;69.05;97965.69;5131490;27;20035;-48
2023/01/19 05:35:28;;;;;;;24.00;12.00;;;;;;;1.74;68.27;97961.16;5114445;28;20027;-48
2023/01/19 05:37:54;;;;;;;21.58;10.75;;;;;;;1.80;68.51;97967.47;5133347;27;20417;-48
2023/01/19 05:40:20;;;;;;;20.73;11.27;;;;;;;1.96;69.04;97967.44;5131449;28;20027;-48
2023/01/19 05:42:46;;;;;;;19.73;12.23;;;;;;;2.18;68.95;97968.56;5132742;27;20023;-48
2023/01/19 05:45:11;;;;;;;13.70;10.43;;;;;;;2.31;68.90;97973.22;5132720;27;20023;-48
2023/01/19 05:47:38;;;;;;;16.80;11.35;;;;;;;2.50;68.77;97976.44;5132787;27;20028;-48
2023/01/19 05:50:05;;;;;;;20.35;12.32;;;;;;;2.76;68.98;97976.97;5131333;28;20058;-48
2023/01/19 05:52:30;;;;;;;28.85;12.57;;;;;;;2.95;68.18;97982.72;5132830;27;20041;-48
2023/01/19 05:54:56;;;;;;;23.50;12.27;;;;;;;3.14;68.16;97978.91;5131354;28;20529;-48
2023/01/19 05:57:22;;;;;;;27.35;13.70;;;;;;;3.14;67.14;97982.31;5131234;28;20031;-47
2023/01/19 05:59:48;;;;;;;25.13;12.85;;;;;;;2.87;67.35;97986.16;5131350;28;20019;-48
2023/01/19 06:02:13;;;;;;;23.27;12.82;;;;;;;2.85;68.49;97985.53;5132622;27;20098;-48
2023/01/19 06:04:39;;;;;;;16.85;11.80;;;;;;;3.04;68.22;97983.50;5131231;28;20563;-48
2023/01/19 06:07:05;;;;;;;22.77;11.27;;;;;;;3.03;66.88;97979.31;5132517;27;20106;-48
2023/01/19 06:09:32;;;;;;;18.95;12.50;;;;;;;2.79;65.30;97978.44;5131182;28;20401;-48
2023/01/19 06:11:58;;;;;;;19.63;11.32;;;;;;;2.57;65.60;97970.41;5132414;27;20019;-48
2023/01/19 06:14:25;;;;;;;15.13;10.52;;;;;;;2.31;64.80;97980.19;5132373;27;20061;-48
2023/01/19 06:16:50;;;;;;;17.67;11.90;;;;;;;2.07;66.05;97987.00;5132350;27;20063;-47
2023/01/19 06:19:16;;;;;;;19.10;13.32;;;;;;;1.74;67.10;97981.03;5133801;27;20100;-48
2023/01/19 06:21:48;;;;;;;21.38;14.38;;;;;;;1.53;69.51;97981.50;5136373;27;20019;-48
2023/01/19 06:24:16;;;;;;;27.08;15.50;;;;;;;1.63;70.86;97982.19;5136059;27;20088;-48
2023/01/19 06:26:45;;;;;;;27.60;15.27;;;;;;;1.83;71.08;97979.25;5134866;27;20058;-48
2023/01/19 06:29:11;;;;;;;21.08;15.10;;;;;;;1.91;70.94;97977.50;5134921;27;20034;-48
2023/01/19 06:31:36;;;;;;;26.77;14.80;;;;;;;1.96;71.26;97977.81;5136478;27;20019;-48
2023/01/19 06:34:03;;;;;;;23.65;14.02;;;;;;;2.05;70.36;97976.00;5134787;27;20415;-48
2023/01/19 06:36:28;;;;;;;26.98;13.10;;;;;;;1.94;70.73;97982.34;5134754;27;20019;-48
2023/01/19 06:38:54;;;;;;;24.05;13.05;;;;;;;1.92;69.81;97984.28;5136114;27;20029;-48
2023/01/19 06:41:20;;;;;;;16.80;12.98;;;;;;;1.86;69.50;97984.13;5136021;27;20496;-48
2023/01/19 06:43:45;;;;;;;21.70;14.57;;;;;;;1.56;69.08;97992.34;5134696;27;20493;-48
2023/01/19 06:46:12;;;;;;;21.40;15.00;;;;;;;1.14;70.32;97995.81;5134565;27;20019;-48
2023/01/19 06:48:38;;;;;;;17.95;11.68;;;;;;;1.06;71.92;98000.94;5135881;27;20027;-48
2023/01/19 06:51:05;;;;;;;19.90;13.60;;;;;;;1.11;72.39;98001.31;5135797;27;20015;-48
2023/01/19 06:53:31;;;;;;;21.85;13.60;;;;;;;1.18;72.72;97999.69;5135758;27;20431;-48
2023/01/19 06:56:00;;;;;;;24.33;12.63;;;;;;;1.37;73.24;97990.06;5135733;27;20400;-48
2023/01/19 06:58:27;;;;;;;23.33;13.82;;;;;;;1.56;72.38;98001.88;5134373;27;20496;-48
2023/01/19 07:00:53;;;;;;;37.22;14.18;;;;;;;1.74;72.61;98005.13;5135595;27;20019;-48
2023/01/19 07:03:22;;;;;;;28.40;12.40;;;;;;;1.95;71.64;98015.00;5134406;27;20023;-48
2023/01/19 07:05:55;;;;;;;26.20;12.48;;;;;;;2.12;71.15;98012.41;5134240;27;20031;-48
2023/01/19 07:08:21;;;;;;;23.75;12.85;;;;;;;2.29;71.13;98013.19;5135720;27;20023;-48
2023/01/19 07:10:47;;;;;;;18.25;11.82;;;;;;;2.38;70.30;98014.81;5134108;27;20024;-47
2023/01/19 07:13:13;;;;;;;25.52;13.07;;;;;;;2.40;70.11;98015.47;5135353;27;20045;-48
2023/01/19 07:15:38;;;;;;;22.70;13.10;;;;;;;2.47;70.62;98013.81;5135316;27;20495;-47
2023/01/19 07:18:06;;;;;;;21.85;13.15;;;;;;;2.43;69.55;98016.91;5133988;27;20031;-47
2023/01/19 07:20:33;;;;;;;21.73;12.68;;;;;;;2.38;69.70;98027.75;5133954;27;20019;-48
2023/01/19 07:22:59;;;;;;;26.85;14.52;;;;;;;2.42;69.97;98030.84;5133685;27;20525;-48
2023/01/19 07:25:25;;;;;;;29.17;14.75;;;;;;;2.49;70.36;98032.56;5133996;27;20152;-47
2023/01/19 07:27:55;;;;;;;34.15;15.88;;;;;;;2.53;69.96;98033.06;5133789;27;20023;-48
2023/01/19 07:30:20;;;;;;;29.02;16.23;;;;;;;2.47;70.15;98021.56;5134299;27;20148;-48
2023/01/19 07:32:46;;;;;;;30.25;15.18;;;;;;;2.69;70.10;98027.03;5134970;27;20114;-48
2023/01/19 07:35:12;;;;;;;27.33;17.67;;;;;;;2.80;69.25;98029.28;5133667;27;20488;-48
2023/01/19 07:37:37;;;;;;;37.92;15.80;;;;;;;2.71;69.25;98038.03;5134975;27;20020;-48
2023/01/19 07:40:03;;;;;;;24.98;14.63;;;;;;;2.92;70.09;98030.53;5133539;27;20019;-48
2023/01/19 07:42:29;;;;;;;28.30;16.80;;;;;;;3.07;69.09;98033.22;5134872;27;20027;-48
2023/01/19 07:44:54;;;;;;;27.50;16.17;;;;;;;3.18;69.03;98037.25;5135024;27;20072;-48
2023/01/19 07:47:20;;;;;;;24.30;17.67;;;;;;;3.23;68.42;98040.13;5133377;27;20037;-48
2023/01/19 07:49:46;;;;;;;28.33;16.45;;;;;;;2.95;68.10;98025.00;5133392;27;20031;-48
2023/01/19 07:52:11;;;;;;;22.23;13.55;;;;;;;2.92;67.54;98025.34;5134667;27;20400;-48
2023/01/19 07:54:37;;;;;;;32.15;15.35;;;;;;;2.83;67.46;98041.09;5133336;27;20549;-48
2023/01/19 07:57:02;;;;;;;29.55;14.40;;;;;;;2.95;68.09;98056.09;5133333;27;20035;-47
2023/01/19 07:59:29;;;;;;;42.40;15.00;;;;;;;3.07;68.10;98056.56;5134469;27;20027;-48
2023/01/19 08:01:58;;;;;;;29.55;14.80;;;;;;;3.34;68.42;98063.09;5134363;27;20221;-48
2023/01/19 08:04:25;;;;;;;26.00;15.32;;;;;;;3.36;67.25;98062.91;5134448;27;20020;-48
2023/01/19 08:06:51;;;;;;;38.63;16.08;;;;;;;3.38;67.23;98069.56;5134279;27;20015;-48
2023/01/19 08:09:17;;;;;;;65.15;16.42;;;;;;;3.66;67.91;98074.25;5132962;27;20039;-48
2023/01/19 08:11:42;;;;;;;34.53;15.20;;;;;;;3.63;66.66;98074.63;5134239;27;20023;-48
2023/01/19 08:14:08;;;;;;;34.40;16.55;;;;;;;3.62;66.74;98065.22;5132858;27;20098;-47
2023/01/19 08:16:35;;;;;;;38.58;16.25;;;;;;;3.78;66.76;98077.28;5134154;27;20084;-48
2023/01/19 08:19:01;;;;;;;29.63;16.50;;;;;;;4.13;66.68;98072.50;5134126;27;20023;-48
2023/01/19 08:21:27;;;;;;;27.92;15.23;;;;;;;4.61;65.62;98088.69;5132741;27;20015;-48
2023/01/19 08:23:56;;;;;;;34.50;14.38;;;;;;;5.06;64.45;98078.31;5132421;27;20047;-48
2023/01/19 08:26:26;;;;;;;35.30;15.63;;;;;;;5.35;63.44;98087.88;5133960;27;20057;-48
2023/01/19 08:28:56;;;;;;;51.63;16.80;;;;;;;5.45;63.43;98083.19;5133861;27;20028;-48
2023/01/19 08:31:23;;;;;;;40.88;15.75;;;;;;;5.60;62.99;98076.16;5133868;27;20019;-48
2023/01/19 08:33:49;;;;;;;23.10;15.35;;;;;;;5.51;60.61;98082.44;5132386;27;20069;-48
2023/01/19 08:36:15;;;;;;;35.80;16.50;;;;;;;5.24;60.47;98081.34;5132416;27;20497;-48
2023/01/19 08:38:43;;;;;;;31.95;16.90;;;;;;;4.85;60.44;98086.81;5133729;27;20023;-48
2023/01/19 08:41:10;;;;;;;30.73;15.27;;;;;;;4.58;62.57;98089.81;5133122;27;20523;-48
2023/01/19 08:43:36;;;;;;;28.17;16.05;;;;;;;4.83;62.62;98096.56;5133105;27;20031;-48
2023/01/19 08:46:03;;;;;;;22.67;15.70;;;;;;;4.96;61.05;98100.16;5133572;27;20060;-48
2023/01/19 08:48:29;;;;;;;21.05;15.38;;;;;;;4.94;62.05;98102.13;5133619;27;20027;-48
2023/01/19 08:50:54;;;;;;;21.73;15.25;;;;;;;5.04;61.26;98101.88;5133451;27;20023;-48
2023/01/19 08:53:22;;;;;;;20.92;14.70;;;;;;;5.22;61.65;98113.72;5133412;27;20039;-48
2023/01/19 08:55:48;;;;;;;25.65;16.17;;;;;;;5.46;62.19;98112.63;5133359;27;20015;-48
2023/01/19 08:58:15;;;;;;;30.83;15.73;;;;;;;5.61;61.32;98113.41;5133347;27;20023;-48
2023/01/19 09:00:41;;;;;;;27.48;14.85;;;;;;;5.76;61.58;98111.59;5133305;27;20031;-48
2023/01/19 09:03:10;;;;;;;27.50;15.82;;;;;;;5.83;61.22;98122.06;5132013;27;20031;-48
2023/01/19 09:05:37;;;;;;;25.70;14.85;;;;;;;5.75;59.66;98116.97;5133230;27;20524;-48
2023/01/19 09:08:07;;;;;;;26.13;14.15;;;;;;;5.73;60.77;98116.34;5133280;27;20024;-48
2023/01/19 09:10:36;;;;;;;25.48;14.93;;;;;;;5.88;60.53;98116.31;5133405;27;20362;-48
2023/01/19 09:13:09;;;;;;;22.92;14.65;;;;;;;5.86;60.01;98121.72;5133374;27;20557;-48
2023/01/19 09:15:36;;;;;;;26.38;14.68;;;;;;;5.70;60.17;98116.72;5133071;27;20035;-48
2023/01/19 09:18:04;;;;;;;22.75;15.02;;;;;;;5.57;59.80;98115.59;5131773;27;20020;-48
2023/01/19 09:20:31;;;;;;;23.10;14.85;;;;;;;5.44;60.59;98115.41;5131738;27;20481;-48
2023/01/19 09:22:57;;;;;;;18.58;14.45;;;;;;;5.42;60.28;98122.59;5131751;27;20499;-49
2023/01/19 09:25:24;;;;;;;23.23;15.52;;;;;;;5.23;59.64;98126.53;5132981;27;20027;-48
2023/01/19 09:27:50;;;;;;;25.35;15.55;;;;;;;4.90;60.28;98136.47;5131730;27;20019;-48
2023/01/19 09:30:16;;;;;;;30.35;15.07;;;;;;;4.99;61.47;98138.03;5131509;27;20492;-48
2023/01/19 09:32:43;;;;;;;27.48;14.70;;;;;;;5.19;61.44;98141.72;5132712;27;20065;-48
2023/01/19 09:35:08;;;;;;;23.90;14.60;;;;;;;5.39;61.38;98131.56;5133130;27;20100;-48
2023/01/19 09:37:34;;;;;;;31.15;15.13;;;;;;;5.55;60.54;98141.00;5132807;27;20489;-49
2023/01/19 09:40:00;;;;;;;20.77;14.00;;;;;;;5.55;59.46;98130.56;5132830;27;20108;-48
2023/01/19 09:42:42;;;;;;;20.95;13.85;;;;;;;5.45;60.04;98140.44;5132831;27;20027;-48
2023/01/19 09:45:38;;;;;;;33.70;13.98;;;;;;;5.52;60.30;98135.34;5131447;28;20031;-48
2023/01/19 09:48:12;;;;;;;20.40;14.18;;;;;;;5.66;59.78;98136.31;5132831;27;20027;-48
2023/01/19 09:50:45;;;;;;;29.77;17.98;;;;;;;5.67;59.29;98128.28;5132751;27;20512;-48
2023/01/19 09:53:32;;;;;;;20.58;14.55;;;;;;;5.63;60.65;98127.03;5133838;27;20023;-48
2023/01/19 09:55:57;;;;;;;23.35;14.18;;;;;;;5.61;59.84;98139.44;5135758;27;20031;-49
2023/01/19 09:58:23;;;;;;;26.55;14.15;;;;;;;5.69;60.17;98134.13;5135640;27;20553;-48
2023/01/19 10:01:03;;;;;;;19.40;13.38;;;;;;;5.96;60.24;98145.69;5135529;27;20437;-48
2023/01/19 10:03:30;;;;;;;19.63;13.73;;;;;;;6.15;60.01;98148.69;5135943;27;20393;-49
2023/01/19 10:06:03;;;;;;;26.90;13.77;;;;;;;6.26;58.98;98152.59;5135478;27;20022;-49
2023/01/19 10:08:50;;;;;;;19.98;13.35;;;;;;;6.48;59.05;98151.63;5135456;27;20030;-48
2023/01/19 10:11:36;;;;;;;20.85;13.18;;;;;;;6.59;58.66;98148.47;5136693;27;20035;-48
2023/01/19 10:14:10;;;;;;;24.00;14.70;;;;;;;6.46;58.33;98157.97;5136615;27;20096;-48
2023/01/19 10:16:56;;;;;;;21.40;14.15;;;;;;;6.21;58.62;98155.75;5135274;27;20038;-48
2023/01/19 10:19:41;;;;;;;24.88;13.23;;;;;;;6.16;59.71;98153.72;5135260;27;20382;-48
2023/01/19 10:22:21;;;;;;;25.45;15.25;;;;;;;6.49;60.08;98152.41;5135186;27;20035;-48
2023/01/19 10:24:51;;;;;;;23.67;15.80;;;;;;;6.74;59.60;98158.03;5136264;27;20208;-48
2023/01/19 10:27:23;;;;;;;23.63;15.40;;;;;;;6.90;59.42;98146.50;5135014;27;20447;-48
2023/01/19 10:29:48;;;;;;;25.15;13.32;;;;;;;6.97;57.63;98153.41;5134952;27;20023;-48
2023/01/19 10:32:21;;;;;;;17.50;11.65;;;;;;;6.96;58.50;98150.97;5134923;27;20450;-48
2023/01/19 10:34:49;;;;;;;16.83;13.02;;;;;;;7.09;58.52;98153.69;5136109;27;20015;-48
2023/01/19 10:37:31;;;;;;;21.13;13.40;;;;;;;7.07;57.89;98157.47;5136080;27;20034;-48
2023/01/19 10:40:25;;;;;;;28.63;14.35;;;;;;;7.13;58.56;98154.09;5136102;27;20045;-48
2023/01/19 10:42:52;;;;;;;23.60;14.38;;;;;;;7.30;58.33;98155.41;5136054;27;20041;-48
2023/01/19 10:45:22;;;;;;;22.75;14.57;;;;;;;7.42;58.62;98150.44;5136001;27;20019;-48
2023/01/19 10:47:49;;;;;;;25.27;14.52;;;;;;;7.50;58.13;98159.94;5135978;27;20114;-49
2023/01/19 10:50:20;;;;;;;19.38;12.48;;;;;;;7.49;56.75;98148.69;5135878;27;20069;-48
2023/01/19 10:52:50;;;;;;;19.38;12.88;;;;;;;7.47;57.44;98155.09;5135787;27;20079;-48
2023/01/19 10:55:24;;;;;;;19.98;12.75;;;;;;;7.51;56.56;98153.72;5135857;27;20378;-48
2023/01/19 10:57:52;;;;;;;21.67;13.30;;;;;;;7.38;58.49;98151.84;5135725;27;20038;-49
2023/01/19 11:00:38;;;;;;;18.33;13.38;;;;;;;7.32;60.29;98148.19;5135647;27;20265;-49
2023/01/19 11:03:24;;;;;;;23.90;13.43;;;;;;;7.03;60.30;98149.22;5134372;27;20527;-48
2023/01/19 11:05:50;;;;;;;15.95;12.23;;;;;;;6.85;62.85;98144.47;5134427;27;20023;-49
2023/01/19 11:08:29;;;;;;;21.73;12.20;;;;;;;6.90;63.24;98149.13;5134263;27;20492;-49
2023/01/19 11:11:03;;;;;;;14.85;10.80;;;;;;;6.93;62.34;98151.38;5135540;27;20056;-49
2023/01/19 11:13:29;;;;;;;17.00;12.00;;;;;;;6.82;62.10;98142.25;5135346;27;20034;-48
2023/01/19 11:15:58;;;;;;;15.65;12.50;;;;;;;6.72;61.57;98146.97;5134037;27;20027;-48
2023/01/19 11:18:35;;;;;;;18.02;13.63;;;;;;;6.59;62.98;98140.66;5135341;27;20027;-48
2023/01/19 11:21:13;;;;;;;20.40;13.57;;;;;;;6.56;63.56;98137.63;5135370;27;20061;-48
2023/01/19 11:23:51;;;;;;;15.95;12.55;;;;;;;6.70;63.68;98136.75;5135090;27;20073;-48
2023/01/19 11:26:32;;;;;;;17.75;14.40;;;;;;;6.78;63.74;98138.41;5116811;27;20027;-48
2023/01/19 11:29:01;;;;;;;23.55;12.93;;;;;;;6.86;64.67;98132.25;5135303;27;20054;-48
2023/01/19 11:31:26;;;;;;;15.90;13.25;;;;;;;7.00;63.78;98124.31;5135169;27;20040;-48
2023/01/19 11:33:56;;;;;;;16.98;13.65;;;;;;;6.94;63.06;98119.88;5135032;27;20084;-48
2023/01/19 11:36:31;;;;;;;16.75;13.77;;;;;;;6.89;63.57;98118.84;5135025;27;20480;-49
2023/01/19 11:39:19;;;;;;;18.20;13.88;;;;;;;6.79;64.33;98119.16;5135029;27;20480;-48
2023/01/19 11:41:49;;;;;;;21.45;14.35;;;;;;;6.70;65.31;98118.50;5133585;27;20519;-48